Time;durP1;ratioP1;P1;durP2;ratioP2;P2;SDS_P1;SDS_P2;PMS_P1;PMS_P2;Temp;Humidity;BMP_temperature;BMP_pressure;BME280_temperature;BME280_humidity;BME280_pressure;Samples;Min_cycle;Max_cycle;Signal;HPM_P1;HPM_P2
2023/03/25 00:00:58;;;;;;;9.77;2.08;;;10.00;81.70;;;;;;5023265;28;20085;-75
2023/03/25 00:03:34;;;;;;;7.45;2.22;;;9.90;82.40;;;;;;5023559;28;20470;-77
2023/03/25 00:06:00;;;;;;;8.23;2.22;;;9.90;82.80;;;;;;5026997;28;20128;-74
2023/03/25 00:08:27;;;;;;;10.45;2.28;;;9.80;83.30;;;;;;5027203;28;20033;-75
2023/03/25 00:10:58;;;;;;;8.82;2.88;;;9.80;83.60;;;;;;5027159;28;20923;-75
2023/03/25 00:13:24;;;;;;;10.85;2.42;;;9.80;83.70;;;;;;5029315;28;20136;-76
2023/03/25 00:15:52;;;;;;;8.68;2.92;;;9.70;84.00;;;;;;5026129;28;20044;-75
2023/03/25 00:18:21;;;;;;;9.77;2.78;;;9.70;84.20;;;;;;5023818;28;20029;-76
2023/03/25 00:20:51;;;;;;;7.85;2.25;;;9.70;84.40;;;;;;5025462;28;20018;-74
2023/03/25 00:23:18;;;;;;;12.55;3.10;;;9.70;84.80;;;;;;5020788;28;20048;-74
2023/03/25 00:25:44;;;;;;;8.60;2.83;;;9.70;85.10;;;;;;5024924;28;20435;-75
2023/03/25 00:28:11;;;;;;;9.18;2.65;;;9.70;85.30;;;;;;5027024;28;20037;-75
2023/03/25 00:30:41;;;;;;;12.05;2.72;;;9.60;85.40;;;;;;5028832;28;20026;-75
2023/03/25 00:33:09;;;;;;;12.13;2.50;;;9.60;85.50;;;;;;5027431;28;20037;-75
2023/03/25 00:35:38;;;;;;;8.13;2.72;;;9.60;85.60;;;;;;5027165;28;20037;-75
2023/03/25 00:38:05;;;;;;;13.40;3.20;;;9.60;85.60;;;;;;5023918;28;20021;-74
2023/03/25 00:40:35;;;;;;;14.10;3.08;;;9.60;85.80;;;;;;5027769;28;20087;-74
2023/03/25 00:43:02;;;;;;;11.77;2.88;;;9.60;85.70;;;;;;5008269;28;20049;-75
2023/03/25 00:45:29;;;;;;;15.77;3.55;;;9.60;85.80;;;;;;5024085;28;20126;-75
2023/03/25 00:47:55;;;;;;;13.52;3.30;;;9.60;85.80;;;;;;5019971;28;20045;-74
2023/03/25 00:50:21;;;;;;;20.95;3.45;;;9.60;86.00;;;;;;5024090;28;20188;-74
2023/03/25 00:52:47;;;;;;;12.32;3.08;;;9.60;86.10;;;;;;5023618;28;20041;-74
2023/03/25 00:55:14;;;;;;;13.40;3.33;;;9.60;86.10;;;;;;5029034;28;20047;-74
2023/03/25 00:57:40;;;;;;;14.55;3.40;;;9.60;86.20;;;;;;5026420;28;20072;-74
2023/03/25 01:00:08;;;;;;;16.77;3.25;;;9.60;86.40;;;;;;5029276;28;20061;-74
2023/03/25 01:02:34;;;;;;;14.25;3.13;;;9.60;86.40;;;;;;5025146;28;20125;-74
2023/03/25 01:05:01;;;;;;;12.98;2.85;;;9.60;86.00;;;;;;5027289;28;20104;-74
2023/03/25 01:07:28;;;;;;;15.75;2.92;;;9.60;86.10;;;;;;5025458;28;20037;-74
2023/03/25 01:09:55;;;;;;;17.40;3.28;;;9.60;86.00;;;;;;5026959;28;20060;-73
2023/03/25 01:12:21;;;;;;;13.52;3.35;;;9.60;85.90;;;;;;5009738;28;20025;-74
2023/03/25 01:14:47;;;;;;;17.65;3.67;;;9.70;85.80;;;;;;5041601;28;20043;-73
2023/03/25 01:17:13;;;;;;;19.50;3.42;;;9.70;85.40;;;;;;5023719;28;20072;-74
2023/03/25 01:19:39;;;;;;;16.58;3.90;;;9.70;85.30;;;;;;5026590;28;20032;-74
2023/03/25 01:22:05;;;;;;;15.93;3.53;;;9.70;85.20;;;;;;5022063;28;20052;-75
2023/03/25 01:24:31;;;;;;;20.40;3.58;;;9.70;85.00;;;;;;5024464;28;20037;-74
2023/03/25 01:26:57;;;;;;;18.33;3.38;;;9.70;84.90;;;;;;5017202;28;20570;-75
2023/03/25 01:29:23;;;;;;;13.95;3.42;;;9.70;84.50;;;;;;5023294;28;20120;-75
2023/03/25 01:31:49;;;;;;;19.45;4.20;;;9.70;84.00;;;;;;5022866;28;20713;-75
2023/03/25 01:34:16;;;;;;;19.90;4.18;;;9.80;83.60;;;;;;5020381;28;20032;-75
2023/03/25 01:36:45;;;;;;;15.63;3.42;;;9.80;82.90;;;;;;5022541;28;20045;-76
2023/03/25 01:39:15;;;;;;;21.55;4.00;;;9.80;82.80;;;;;;5023616;28;20053;-75
2023/03/25 01:41:42;;;;;;;20.42;4.03;;;9.90;82.40;;;;;;5021592;28;20061;-74
2023/03/25 01:44:17;;;;;;;18.70;4.10;;;9.80;82.20;;;;;;5022250;28;20478;-76
2023/03/25 01:46:44;;;;;;;20.65;4.15;;;9.90;82.00;;;;;;5017560;28;20052;-76
2023/03/25 01:49:16;;;;;;;20.95;4.60;;;10.00;81.70;;;;;;5020483;28;20033;-75
2023/03/25 01:51:46;;;;;;;19.75;4.18;;;10.00;81.30;;;;;;5026928;28;20469;-76
2023/03/25 01:54:16;;;;;;;22.38;4.93;;;9.90;81.40;;;;;;5022133;28;20033;-74
2023/03/25 01:56:45;;;;;;;17.85;3.55;;;10.00;81.40;;;;;;5024749;28;20045;-76
2023/03/25 01:59:14;;;;;;;21.73;4.63;;;9.90;81.40;;;;;;5019001;28;20025;-74
2023/03/25 02:01:40;;;;;;;17.23;4.00;;;9.90;81.30;;;;;;5031489;28;20386;-74
2023/03/25 02:04:10;;;;;;;19.10;4.20;;;10.00;81.30;;;;;;5003326;28;20124;-74
2023/03/25 02:06:43;;;;;;;23.80;4.57;;;10.00;81.10;;;;;;5027077;28;20040;-76
2023/03/25 02:09:12;;;;;;;24.15;3.78;;;10.00;81.50;;;;;;5022573;28;20040;-74
2023/03/25 02:11:39;;;;;;;20.67;4.07;;;10.00;81.60;;;;;;5021178;28;20473;-74
2023/03/25 02:14:14;;;;;;;17.70;4.43;;;10.00;81.70;;;;;;5018295;28;20034;-75
2023/03/25 02:16:59;;;;;;;23.02;4.75;;;10.00;82.30;;;;;;5021378;28;20033;-76
2023/03/25 02:19:56;;;;;;;20.38;4.43;;;9.90;83.20;;;;;;5021827;28;20038;-74
2023/03/25 02:22:48;;;;;;;18.25;4.53;;;9.80;83.90;;;;;;5020740;28;20128;-75
2023/03/25 02:25:53;;;;;;;23.77;4.57;;;9.80;84.40;;;;;;5024036;28;20045;-76
2023/03/25 02:28:41;;;;;;;20.20;4.10;;;9.70;84.80;;;;;;5021693;28;20108;-75
2023/03/25 02:31:33;;;;;;;21.10;3.92;;;9.60;85.50;;;;;;5020355;28;20372;-75
2023/03/25 02:34:32;;;;;;;19.58;4.32;;;9.60;85.90;;;;;;5022727;28;20108;-75
2023/03/25 02:37:14;;;;;;;18.25;3.25;;;9.60;85.90;;;;;;5021657;28;20940;-76
2023/03/25 02:40:05;;;;;;;20.00;4.00;;;9.60;86.10;;;;;;5026018;28;20033;-75
2023/03/25 02:42:39;;;;;;;19.75;4.05;;;9.50;86.30;;;;;;5022917;28;20033;-75
2023/03/25 02:45:24;;;;;;;17.73;3.88;;;9.50;86.30;;;;;;5021156;28;20061;-75
2023/03/25 02:47:58;;;;;;;15.82;3.33;;;9.50;86.40;;;;;;5025966;28;20063;-74
2023/03/25 02:50:47;;;;;;;16.40;3.80;;;9.50;86.10;;;;;;5036172;28;21356;-74
2023/03/25 02:53:28;;;;;;;17.00;3.13;;;9.50;85.80;;;;;;5026840;28;20053;-74
2023/03/25 02:55:58;;;;;;;18.60;4.03;;;9.50;85.30;;;;;;5024575;28;20037;-75
2023/03/25 02:58:28;;;;;;;15.85;3.85;;;9.60;85.40;;;;;;5026047;28;20114;-75
2023/03/25 03:00:58;;;;;;;17.30;3.30;;;9.60;85.70;;;;;;5023932;28;20056;-75
2023/03/25 03:03:26;;;;;;;19.50;3.78;;;9.50;85.80;;;;;;5017869;28;20076;-75
2023/03/25 03:05:55;;;;;;;15.15;2.97;;;9.50;85.80;;;;;;5025483;28;20076;-74
2023/03/25 03:08:41;;;;;;;19.80;3.42;;;9.50;85.40;;;;;;5024118;28;20040;-74
2023/03/25 03:11:20;;;;;;;16.63;3.53;;;9.50;85.10;;;;;;5025113;28;20429;-74
2023/03/25 03:14:13;;;;;;;17.15;3.15;;;9.60;84.50;;;;;;5025248;28;20583;-74
2023/03/25 03:17:08;;;;;;;13.30;2.70;;;9.60;84.10;;;;;;5019870;28;20050;-75
2023/03/25 03:20:14;;;;;;;15.38;3.40;;;9.60;83.70;;;;;;5007690;28;20587;-74
2023/03/25 03:23:19;;;;;;;16.63;3.33;;;9.60;83.10;;;;;;5021617;28;20380;-74
2023/03/25 03:26:12;;;;;;;13.02;2.60;;;9.60;82.70;;;;;;5024080;28;20025;-74
2023/03/25 03:28:47;;;;;;;15.30;2.63;;;9.50;82.50;;;;;;5021709;28;20029;-75
2023/03/25 03:31:23;;;;;;;13.07;2.95;;;9.60;82.70;;;;;;5019380;28;20034;-75
2023/03/25 03:34:02;;;;;;;13.40;2.53;;;9.60;82.80;;;;;;5024298;28;20032;-75
2023/03/25 03:36:35;;;;;;;12.00;2.30;;;9.60;82.50;;;;;;5022596;28;20281;-75
2023/03/25 03:39:08;;;;;;;13.48;3.00;;;9.60;82.50;;;;;;5029391;28;20106;-74
2023/03/25 03:41:38;;;;;;;12.27;2.20;;;9.60;82.20;;;;;;5023663;28;21714;-74
2023/03/25 03:44:12;;;;;;;10.80;2.20;;;9.50;82.10;;;;;;5037631;28;20030;-76
2023/03/25 03:46:44;;;;;;;11.63;2.53;;;9.60;81.50;;;;;;5028206;28;20038;-74
2023/03/25 03:49:16;;;;;;;10.25;2.58;;;9.60;81.50;;;;;;5025129;28;20049;-74
2023/03/25 03:51:52;;;;;;;12.50;2.10;;;9.50;81.70;;;;;;5021670;28;20551;-74
2023/03/25 03:54:45;;;;;;;11.18;1.90;;;9.50;81.60;;;;;;5024968;28;20044;-77
2023/03/25 03:57:21;;;;;;;10.35;2.15;;;9.60;81.50;;;;;;5013161;28;20042;-73
2023/03/25 04:00:08;;;;;;;9.15;1.92;;;9.50;81.60;;;;;;5029251;28;20028;-75
2023/03/25 04:02:57;;;;;;;9.82;2.92;;;9.60;81.80;;;;;;5020380;28;20117;-75
2023/03/25 04:05:29;;;;;;;9.02;2.25;;;9.50;82.10;;;;;;5018830;28;20029;-76
2023/03/25 04:08:10;;;;;;;12.13;2.05;;;9.40;81.70;;;;;;5025000;28;20693;-74
2023/03/25 04:10:44;;;;;;;12.02;1.77;;;9.40;81.90;;;;;;5021977;28;20413;-75
2023/03/25 04:13:13;;;;;;;8.07;2.03;;;9.40;81.90;;;;;;5025303;28;20032;-75
2023/03/25 04:15:41;;;;;;;9.48;2.63;;;9.30;82.20;;;;;;5030886;28;20272;-75
2023/03/25 04:18:07;;;;;;;11.32;1.95;;;9.30;82.10;;;;;;5025956;28;20496;-76
2023/03/25 04:20:35;;;;;;;10.65;2.33;;;9.20;82.20;;;;;;5024657;28;20029;-74
2023/03/25 04:23:03;;;;;;;14.18;2.65;;;9.20;82.50;;;;;;5022901;28;20033;-75
2023/03/25 04:25:31;;;;;;;11.95;2.67;;;9.20;82.50;;;;;;5024321;28;20025;-74
2023/03/25 04:27:57;;;;;;;12.35;2.13;;;9.10;82.60;;;;;;5021538;28;20043;-75
2023/03/25 04:30:24;;;;;;;7.70;2.42;;;9.20;82.60;;;;;;5024382;28;20029;-74
2023/03/25 04:32:51;;;;;;;14.95;3.28;;;9.10;82.80;;;;;;5023603;28;20056;-75
2023/03/25 04:35:18;;;;;;;16.88;3.15;;;9.10;82.80;;;;;;5023803;28;20473;-75
2023/03/25 04:37:52;;;;;;;10.45;2.30;;;9.10;82.60;;;;;;5025784;28;20068;-75
2023/03/25 04:40:18;;;;;;;13.95;2.63;;;9.10;82.70;;;;;;5022194;28;20028;-75
2023/03/25 04:42:45;;;;;;;12.25;2.67;;;9.10;82.60;;;;;;5028394;28;20033;-76
2023/03/25 04:45:15;;;;;;;14.73;2.95;;;9.10;82.60;;;;;;5023745;28;20025;-75
2023/03/25 04:47:46;;;;;;;11.43;2.80;;;9.00;82.60;;;;;;5020806;28;20041;-75
2023/03/25 04:50:25;;;;;;;12.15;2.70;;;9.10;82.90;;;;;;5023297;28;20033;-74
2023/03/25 04:52:52;;;;;;;14.45;3.67;;;9.20;82.60;;;;;;5025448;28;20040;-75
2023/03/25 04:55:19;;;;;;;13.52;2.95;;;9.20;82.30;;;;;;5023878;28;20045;-74
2023/03/25 04:57:49;;;;;;;14.55;2.90;;;9.20;82.10;;;;;;5024030;28;20037;-74
2023/03/25 05:00:18;;;;;;;20.17;2.92;;;9.20;82.20;;;;;;5002143;28;20451;-75
2023/03/25 05:02:47;;;;;;;14.88;3.70;;;9.30;81.90;;;;;;5022890;28;20741;-76
2023/03/25 05:05:17;;;;;;;12.98;3.10;;;9.20;82.00;;;;;;5023147;28;20048;-75
2023/03/25 05:07:45;;;;;;;20.75;3.67;;;9.20;82.10;;;;;;5023909;28;20041;-74
2023/03/25 05:10:11;;;;;;;18.52;3.85;;;9.20;82.10;;;;;;5034776;28;20401;-73
2023/03/25 05:12:37;;;;;;;15.45;3.50;;;9.10;82.30;;;;;;5020727;28;20064;-75
2023/03/25 05:15:03;;;;;;;19.60;3.83;;;9.10;82.50;;;;;;5015631;28;20108;-74
2023/03/25 05:17:28;;;;;;;17.90;3.50;;;9.10;82.80;;;;;;5015984;28;20034;-75
2023/03/25 05:19:55;;;;;;;18.15;3.53;;;9.00;82.90;;;;;;5017801;28;20082;-74
2023/03/25 05:22:21;;;;;;;15.27;3.13;;;9.00;83.00;;;;;;5019296;28;20065;-73
2023/03/25 05:24:47;;;;;;;19.92;4.13;;;9.00;83.10;;;;;;5023445;28;20109;-73
2023/03/25 05:27:13;;;;;;;22.77;3.92;;;9.00;83.10;;;;;;5002818;28;20132;-73
2023/03/25 05:29:39;;;;;;;27.58;4.25;;;9.00;83.20;;;;;;5014575;28;20022;-75
2023/03/25 05:32:05;;;;;;;19.23;3.97;;;9.00;83.20;;;;;;5021083;28;20091;-75
2023/03/25 05:34:30;;;;;;;20.73;3.88;;;9.00;83.30;;;;;;5006083;28;20354;-74
2023/03/25 05:36:56;;;;;;;18.52;3.40;;;9.00;83.40;;;;;;5020415;28;20044;-75
2023/03/25 05:39:23;;;;;;;21.17;3.97;;;9.00;83.40;;;;;;5022943;28;20064;-76
2023/03/25 05:41:49;;;;;;;20.77;3.50;;;9.10;83.40;;;;;;5036850;28;20044;-74
2023/03/25 05:44:17;;;;;;;22.85;4.20;;;9.00;83.20;;;;;;5029427;28;20037;-76
2023/03/25 05:46:43;;;;;;;24.75;4.30;;;9.10;83.20;;;;;;5032717;28;20049;-76
2023/03/25 05:49:08;;;;;;;21.65;3.90;;;9.10;83.40;;;;;;5021773;28;20041;-76
2023/03/25 05:51:38;;;;;;;22.58;4.45;;;9.10;83.40;;;;;;5021041;28;20033;-75
2023/03/25 05:54:09;;;;;;;23.88;4.32;;;9.20;83.20;;;;;;5021722;28;20030;-75
2023/03/25 05:56:35;;;;;;;18.13;3.88;;;9.20;83.10;;;;;;5022667;28;20041;-75
2023/03/25 05:59:02;;;;;;;26.27;4.70;;;9.30;82.90;;;;;;5016313;28;20790;-75
2023/03/25 06:01:28;;;;;;;24.05;3.67;;;9.30;82.90;;;;;;5018533;28;20180;-75
2023/03/25 06:03:54;;;;;;;20.60;3.90;;;9.30;82.90;;;;;;5022041;28;20152;-74
2023/03/25 06:06:20;;;;;;;24.05;5.05;;;9.30;82.70;;;;;;5023617;28;20037;-75
2023/03/25 06:08:49;;;;;;;25.08;4.15;;;9.40;82.40;;;;;;5029023;28;20516;-74
2023/03/25 06:11:15;;;;;;;20.02;3.92;;;9.40;82.20;;;;;;5024468;28;20038;-75
2023/03/25 06:13:48;;;;;;;24.75;5.05;;;9.40;82.30;;;;;;5024501;28;20025;-75
2023/03/25 06:16:17;;;;;;;23.02;4.53;;;9.50;81.80;;;;;;5032901;28;20274;-75
2023/03/25 06:18:44;;;;;;;23.52;4.78;;;9.60;81.60;;;;;;5037395;28;20096;-74
2023/03/25 06:21:10;;;;;;;21.67;4.25;;;9.60;81.50;;;;;;5030735;28;20051;-74
2023/03/25 06:23:38;;;;;;;20.35;4.45;;;9.70;81.50;;;;;;5036428;28;20037;-74
2023/03/25 06:26:04;;;;;;;28.25;4.93;;;9.70;81.10;;;;;;5005410;28;20436;-76
2023/03/25 06:28:32;;;;;;;22.98;4.45;;;9.70;80.90;;;;;;5034591;28;20033;-76
2023/03/25 06:30:58;;;;;;;23.50;4.45;;;9.80;80.90;;;;;;5023141;28;20133;-74
2023/03/25 06:33:24;;;;;;;29.58;5.25;;;9.80;80.80;;;;;;5026336;28;20116;-75
2023/03/25 06:35:52;;;;;;;28.27;5.38;;;9.90;80.60;;;;;;5029305;28;20519;-77
2023/03/25 06:38:20;;;;;;;28.10;4.90;;;9.90;80.70;;;;;;5015569;28;20024;-75
2023/03/25 06:40:46;;;;;;;24.10;5.22;;;9.90;80.80;;;;;;5029069;28;20083;-75
2023/03/25 06:43:12;;;;;;;23.85;4.78;;;9.80;81.00;;;;;;5027193;28;20037;-75
2023/03/25 06:45:38;;;;;;;29.60;4.55;;;9.90;80.90;;;;;;5028339;28;20025;-74
2023/03/25 06:48:04;;;;;;;23.40;5.15;;;9.90;80.80;;;;;;5028860;28;20156;-74
2023/03/25 06:50:30;;;;;;;28.00;4.82;;;10.00;80.90;;;;;;5024874;28;20030;-75
2023/03/25 06:52:56;;;;;;;26.10;5.72;;;10.10;80.80;;;;;;5039684;28;20029;-74
2023/03/25 06:55:22;;;;;;;28.65;5.95;;;10.10;80.60;;;;;;5040280;28;20727;-76
2023/03/25 06:57:47;;;;;;;21.05;5.38;;;10.10;80.40;;;;;;5029018;28;20044;-75
2023/03/25 07:00:13;;;;;;;24.65;4.97;;;10.10;80.20;;;;;;5031051;28;20037;-73
2023/03/25 07:02:40;;;;;;;28.63;5.28;;;10.10;80.20;;;;;;5028266;28;20393;-73
2023/03/25 07:05:06;;;;;;;29.58;5.10;;;10.20;80.30;;;;;;5031228;28;20096;-72
2023/03/25 07:07:32;;;;;;;25.33;5.55;;;10.10;80.30;;;;;;5027770;28;20041;-72
2023/03/25 07:09:57;;;;;;;28.73;5.38;;;10.20;80.30;;;;;;5022724;28;20063;-73
2023/03/25 07:12:24;;;;;;;24.20;4.85;;;10.20;80.20;;;;;;5025064;28;20096;-73
2023/03/25 07:14:58;;;;;;;28.80;4.88;;;10.20;80.10;;;;;;5029305;28;20033;-73
2023/03/25 07:17:24;;;;;;;21.10;4.22;;;10.20;80.10;;;;;;5024446;28;20037;-73
2023/03/25 07:19:50;;;;;;;23.58;4.50;;;10.30;80.00;;;;;;5027513;28;20401;-72
2023/03/25 07:22:16;;;;;;;26.52;5.35;;;10.30;80.10;;;;;;5037423;28;20065;-72
2023/03/25 07:24:42;;;;;;;28.10;5.75;;;10.30;80.30;;;;;;5026857;28;20041;-73
2023/03/25 07:27:10;;;;;;;21.88;4.80;;;10.40;80.50;;;;;;5026078;28;20170;-73
2023/03/25 07:29:36;;;;;;;24.30;4.32;;;10.40;80.00;;;;;;5025272;28;20806;-72
2023/03/25 07:32:01;;;;;;;23.98;5.40;;;10.50;79.90;;;;;;5026023;28;20033;-72
2023/03/25 07:34:27;;;;;;;25.77;5.30;;;10.60;79.30;;;;;;5029088;28;20035;-72
2023/03/25 07:36:52;;;;;;;29.67;5.07;;;10.60;79.40;;;;;;5030013;28;20065;-73
2023/03/25 07:39:18;;;;;;;26.92;5.95;;;10.70;78.90;;;;;;5025940;28;20366;-73
2023/03/25 07:41:46;;;;;;;24.10;5.88;;;10.60;79.10;;;;;;5024025;28;20136;-72
2023/03/25 07:44:11;;;;;;;24.05;5.05;;;10.60;79.30;;;;;;5026061;28;20029;-73
2023/03/25 07:46:37;;;;;;;25.20;5.15;;;10.70;79.30;;;;;;5022282;28;20492;-73
2023/03/25 07:49:03;;;;;;;25.15;5.55;;;10.80;79.00;;;;;;5022734;28;20501;-74
2023/03/25 07:51:29;;;;;;;24.50;5.53;;;10.90;78.80;;;;;;5027909;28;20277;-75
2023/03/25 07:53:55;;;;;;;29.13;6.18;;;10.90;79.10;;;;;;5024012;28;20075;-74
2023/03/25 07:56:20;;;;;;;26.67;6.20;;;11.00;78.90;;;;;;5024203;28;20041;-74
2023/03/25 07:58:48;;;;;;;27.30;4.93;;;11.00;78.70;;;;;;5021829;28;20030;-74
2023/03/25 08:01:14;;;;;;;25.17;4.93;;;11.00;78.60;;;;;;5025056;28;20549;-74
2023/03/25 08:03:40;;;;;;;27.42;5.35;;;11.10;78.30;;;;;;5025581;28;20030;-74
2023/03/25 08:06:06;;;;;;;20.83;4.25;;;11.10;78.60;;;;;;5024410;28;20053;-74
2023/03/25 08:08:32;;;;;;;28.63;5.57;;;11.20;78.10;;;;;;5025293;28;20022;-74
2023/03/25 08:10:58;;;;;;;25.92;4.88;;;11.30;76.90;;;;;;5022210;28;20464;-73
2023/03/25 08:13:24;;;;;;;25.60;5.28;;;11.40;77.10;;;;;;5026118;28;20037;-72
2023/03/25 08:15:50;;;;;;;23.90;4.35;;;11.50;76.80;;;;;;5015691;28;20128;-74
2023/03/25 08:18:16;;;;;;;28.80;4.78;;;11.50;76.50;;;;;;5023882;28;20021;-74
2023/03/25 08:20:42;;;;;;;21.73;4.55;;;11.40;76.40;;;;;;5021782;28;20029;-74
2023/03/25 08:23:09;;;;;;;25.63;6.05;;;11.50;76.00;;;;;;5025356;28;20380;-74
2023/03/25 08:25:39;;;;;;;24.35;4.82;;;11.60;75.90;;;;;;5022006;28;20022;-74
2023/03/25 08:28:05;;;;;;;21.75;5.00;;;11.60;76.00;;;;;;5022980;28;20168;-74
2023/03/25 08:30:37;;;;;;;26.80;5.22;;;11.40;75.70;;;;;;5023592;28;20037;-74
2023/03/25 08:33:08;;;;;;;25.48;6.13;;;11.50;76.40;;;;;;5025900;28;20106;-74
2023/03/25 08:35:36;;;;;;;29.55;5.85;;;11.50;76.10;;;;;;5024778;28;20067;-74
2023/03/25 08:38:03;;;;;;;24.17;5.60;;;11.40;76.50;;;;;;5022477;28;20525;-74
2023/03/25 08:40:33;;;;;;;20.25;5.40;;;11.40;76.50;;;;;;5028705;28;20051;-73
2023/03/25 08:42:59;;;;;;;21.77;4.78;;;11.40;76.40;;;;;;5004553;28;20048;-73
2023/03/25 08:45:25;;;;;;;29.55;5.53;;;11.50;75.70;;;;;;5027357;28;20028;-74
2023/03/25 08:47:50;;;;;;;26.23;5.72;;;11.50;75.90;;;;;;5023239;28;20048;-73
2023/03/25 08:50:16;;;;;;;26.05;5.47;;;11.60;75.60;;;;;;5027627;28;20568;-73
2023/03/25 08:52:42;;;;;;;23.77;5.75;;;11.80;75.00;;;;;;5024140;28;20079;-74
2023/03/25 08:55:09;;;;;;;25.02;4.88;;;12.10;74.70;;;;;;5026135;28;20043;-72
2023/03/25 08:57:36;;;;;;;29.60;5.03;;;11.90;74.30;;;;;;5023431;28;20037;-73
2023/03/25 09:00:11;;;;;;;28.77;5.97;;;11.90;74.60;;;;;;5028054;28;20067;-73
2023/03/25 09:02:37;;;;;;;21.08;5.88;;;11.80;75.20;;;;;;5025568;28;20081;-75
2023/03/25 09:05:03;;;;;;;19.88;5.13;;;11.70;75.30;;;;;;5025390;28;20033;-73
2023/03/25 09:07:29;;;;;;;28.65;5.60;;;11.80;75.30;;;;;;5025324;28;20060;-74
2023/03/25 09:09:55;;;;;;;30.15;6.45;;;12.00;75.10;;;;;;5026052;28;20045;-74
2023/03/25 09:12:21;;;;;;;28.55;5.93;;;12.00;74.10;;;;;;5026787;28;20033;-73
2023/03/25 09:14:46;;;;;;;24.00;5.20;;;11.80;74.90;;;;;;5024196;28;20783;-73
2023/03/25 09:17:12;;;;;;;24.42;5.80;;;11.80;74.70;;;;;;5023876;28;20048;-74
2023/03/25 09:19:38;;;;;;;28.98;6.35;;;12.10;74.50;;;;;;5027312;28;20034;-73
2023/03/25 09:22:05;;;;;;;25.40;6.00;;;12.40;73.80;;;;;;5023677;28;20393;-73
2023/03/25 09:24:32;;;;;;;28.33;5.88;;;12.80;72.80;;;;;;5027401;28;20531;-72
2023/03/25 09:27:00;;;;;;;28.90;5.65;;;13.20;72.30;;;;;;5027364;28;20033;-73
2023/03/25 09:29:26;;;;;;;24.13;4.82;;;13.60;70.90;;;;;;5024108;28;20033;-73
2023/03/25 09:31:52;;;;;;;24.05;4.65;;;13.40;68.90;;;;;;5025310;28;20564;-73
2023/03/25 09:34:18;;;;;;;24.52;4.70;;;13.20;69.20;;;;;;5025585;28;20029;-73
2023/03/25 09:36:47;;;;;;;24.65;5.65;;;13.30;69.70;;;;;;5024365;28;20132;-73
2023/03/25 09:39:12;;;;;;;23.98;5.35;;;13.10;70.20;;;;;;5033819;28;20359;-72
2023/03/25 09:41:53;;;;;;;28.17;5.97;;;13.00;70.10;;;;;;5023556;28;20067;-73
2023/03/25 09:44:28;;;;;;;24.13;5.07;;;13.40;70.70;;;;;;5032565;28;20083;-73
2023/03/25 09:46:57;;;;;;;23.10;4.75;;;13.60;69.70;;;;;;5023697;28;20064;-73
2023/03/25 09:49:30;;;;;;;22.52;4.97;;;13.40;68.20;;;;;;5024026;28;20032;-74
2023/03/25 09:51:56;;;;;;;29.88;6.03;;;13.10;68.70;;;;;;5023122;28;20519;-73
2023/03/25 09:54:30;;;;;;;23.20;4.93;;;13.00;69.20;;;;;;5021680;28;20080;-73
2023/03/25 09:57:01;;;;;;;21.90;4.33;;;13.10;69.10;;;;;;5025712;28;20085;-74
2023/03/25 09:59:46;;;;;;;28.48;4.85;;;13.30;68.30;;;;;;5006737;28;20084;-74
2023/03/25 10:02:44;;;;;;;25.08;5.10;;;13.50;67.80;;;;;;5031660;28;20038;-73
2023/03/25 10:05:30;;;;;;;19.80;4.50;;;14.10;66.80;;;;;;5023592;28;20119;-74
2023/03/25 10:08:25;;;;;;;23.73;4.82;;;14.40;64.40;;;;;;5023187;28;20072;-74
2023/03/25 10:11:06;;;;;;;22.02;5.13;;;14.40;64.30;;;;;;5023331;28;20109;-74
2023/03/25 10:13:53;;;;;;;23.48;4.68;;;14.20;65.50;;;;;;5030425;28;20037;-73
2023/03/25 10:16:34;;;;;;;18.98;4.53;;;14.20;65.60;;;;;;5023200;28;20528;-74
2023/03/25 10:19:26;;;;;;;18.10;4.32;;;13.80;66.00;;;;;;5024246;28;20415;-74
2023/03/25 10:22:14;;;;;;;22.70;3.97;;;14.00;66.50;;;;;;5023998;28;21131;-74
2023/03/25 10:24:49;;;;;;;21.05;4.50;;;13.70;66.20;;;;;;5032179;28;20044;-74
2023/03/25 10:27:23;;;;;;;;;;;13.50;66.20;;;;;;5023843;28;20107;-73
2023/03/25 10:30:15;;;;;;;22.03;4.83;;;12.90;69.20;;;;;;5023336;28;20284;-73
2023/03/25 10:32:45;;;;;;;26.52;4.78;;;12.60;73.00;;;;;;5027619;28;20325;-74
2023/03/25 10:35:20;;;;;;;22.02;5.32;;;12.20;75.50;;;;;;5025606;28;20069;-73
2023/03/25 10:37:50;;;;;;;22.52;5.13;;;11.80;78.40;;;;;;5025561;28;20049;-74
2023/03/25 10:40:32;;;;;;;21.98;4.72;;;11.60;79.10;;;;;;5021000;28;20045;-73
2023/03/25 10:43:31;;;;;;;17.73;4.15;;;11.80;79.60;;;;;;5023043;28;20049;-73
2023/03/25 10:46:21;;;;;;;21.15;4.60;;;11.80;78.00;;;;;;5026674;28;20107;-73
2023/03/25 10:48:48;;;;;;;20.33;4.30;;;12.10;78.50;;;;;;5024851;28;20029;-74
2023/03/25 10:51:23;;;;;;;21.30;5.35;;;12.40;76.50;;;;;;5025021;28;20037;-73
2023/03/25 10:53:51;;;;;;;21.27;4.43;;;12.60;77.40;;;;;;5023795;28;20036;-74
2023/03/25 10:56:33;;;;;;;22.00;4.45;;;12.80;76.10;;;;;;5020919;28;20549;-73
2023/03/25 10:59:05;;;;;;;19.30;4.03;;;12.90;74.80;;;;;;5024512;28;20024;-71
2023/03/25 11:01:37;;;;;;;24.27;4.82;;;13.30;74.80;;;;;;5025985;28;20029;-73
2023/03/25 11:04:06;;;;;;;20.95;3.70;;;13.70;73.50;;;;;;5025511;28;20037;-74
2023/03/25 11:06:36;;;;;;;17.30;4.35;;;14.00;72.10;;;;;;5029867;28;20551;-73
2023/03/25 11:09:18;;;;;;;16.20;3.75;;;14.10;70.80;;;;;;5026816;28;20084;-72
2023/03/25 11:11:45;;;;;;;15.90;4.00;;;13.80;69.10;;;;;;5024615;28;20045;-73
2023/03/25 11:14:11;;;;;;;16.30;3.42;;;14.00;71.70;;;;;;5025361;28;20021;-74
2023/03/25 11:16:59;;;;;;;16.20;3.40;;;13.90;70.60;;;;;;5012072;28;20052;-73
2023/03/25 11:19:43;;;;;;;17.58;3.70;;;13.90;69.70;;;;;;5026017;28;20025;-73
2023/03/25 11:22:27;;;;;;;17.23;4.00;;;14.10;70.00;;;;;;5021634;28;20059;-73
2023/03/25 11:25:00;;;;;;;20.88;4.40;;;14.30;69.00;;;;;;5025526;28;20083;-72
2023/03/25 11:27:27;;;;;;;17.00;3.55;;;14.50;69.30;;;;;;5020092;28;20628;-73
2023/03/25 11:30:01;;;;;;;21.45;4.55;;;14.60;69.10;;;;;;5026879;28;20030;-72
2023/03/25 11:32:36;;;;;;;15.67;3.47;;;14.60;68.90;;;;;;5025925;28;20033;-74
2023/03/25 11:35:13;;;;;;;19.33;3.95;;;14.40;68.10;;;;;;5026660;28;20514;-73
2023/03/25 11:37:48;;;;;;;18.38;4.60;;;14.20;67.30;;;;;;5024678;28;20090;-74
2023/03/25 11:40:15;;;;;;;;;;;14.50;68.00;;;;;;5019016;28;20025;-73
2023/03/25 11:42:50;;;;;;;15.45;3.47;;;14.70;67.00;;;;;;5026323;28;19921;-73
2023/03/25 11:45:23;;;;;;;14.15;3.80;;;15.00;66.20;;;;;;5023470;28;20470;-73
2023/03/25 11:47:50;;;;;;;21.15;4.72;;;14.80;67.00;;;;;;5026357;28;20140;-73
2023/03/25 11:50:24;;;;;;;24.80;4.28;;;14.50;66.90;;;;;;5020756;28;20029;-73
2023/03/25 11:53:00;;;;;;;20.48;4.82;;;14.40;65.60;;;;;;5024440;28;20044;-73
2023/03/25 11:55:35;;;;;;;19.20;4.70;;;14.30;66.10;;;;;;5027755;28;20122;-72
2023/03/25 11:58:01;;;;;;;16.70;4.20;;;14.70;65.90;;;;;;5025638;28;20048;-71
2023/03/25 12:00:38;;;;;;;20.20;4.03;;;14.60;65.30;;;;;;5029300;28;20029;-72
2023/03/25 12:03:13;;;;;;;19.50;4.72;;;14.70;65.60;;;;;;5036291;28;20076;-72
2023/03/25 12:05:40;;;;;;;18.60;3.60;;;14.70;66.50;;;;;;5023179;28;20026;-71
2023/03/25 12:08:13;;;;;;;17.95;4.10;;;14.50;65.30;;;;;;5026173;28;20034;-72
2023/03/25 12:10:56;;;;;;;21.38;4.38;;;14.70;65.90;;;;;;5026974;28;20025;-73
2023/03/25 12:13:49;;;;;;;23.65;5.35;;;14.80;65.80;;;;;;5027091;28;20616;-72
2023/03/25 12:16:39;;;;;;;20.63;4.15;;;14.80;65.80;;;;;;5023550;28;20096;-73
2023/03/25 12:19:11;;;;;;;21.13;4.60;;;15.00;64.40;;;;;;5025738;28;20120;-72
2023/03/25 12:21:51;;;;;;;21.80;4.43;;;15.00;64.30;;;;;;5024703;28;20069;-72
2023/03/25 12:24:39;;;;;;;23.67;4.57;;;15.40;64.50;;;;;;5025589;28;20041;-74
2023/03/25 12:27:34;;;;;;;19.00;4.53;;;15.30;63.20;;;;;;5021745;28;20037;-72
2023/03/25 12:30:30;;;;;;;21.83;3.80;;;14.50;64.00;;;;;;5023212;28;20120;-72
2023/03/25 12:33:13;;;;;;;19.00;3.53;;;14.30;65.20;;;;;;5025292;28;20043;-72
2023/03/25 12:36:18;;;;;;;17.95;3.83;;;14.10;65.90;;;;;;5026713;28;20037;-73
2023/03/25 12:38:50;;;;;;;16.92;4.45;;;13.90;64.70;;;;;;5016553;28;20044;-72
2023/03/25 12:41:31;;;;;;;17.63;3.65;;;13.90;66.90;;;;;;5025228;28;20359;-73
2023/03/25 12:44:02;;;;;;;13.43;3.35;;;14.00;66.70;;;;;;5024739;28;20033;-72
2023/03/25 12:46:39;;;;;;;17.88;3.90;;;13.70;67.20;;;;;;5025997;28;20064;-73
2023/03/25 12:49:37;;;;;;;20.83;4.35;;;13.50;66.40;;;;;;5023533;28;20580;-73
2023/03/25 12:52:08;;;;;;;22.95;4.78;;;13.50;66.70;;;;;;5024877;28;20052;-72
2023/03/25 12:55:07;;;;;;;15.75;4.50;;;13.70;67.40;;;;;;5023689;28;20077;-71
2023/03/25 12:57:51;;;;;;;21.60;4.28;;;14.00;67.10;;;;;;5023489;28;20136;-72
2023/03/25 13:00:45;;;;;;;18.52;4.80;;;14.30;65.00;;;;;;5023856;28;20437;-72
2023/03/25 13:03:32;;;;;;;17.42;4.05;;;14.40;65.20;;;;;;5029698;28;20057;-73
2023/03/25 13:06:29;;;;;;;21.50;3.90;;;14.30;63.90;;;;;;5022098;28;20041;-73
2023/03/25 13:09:20;;;;;;;16.75;4.38;;;14.70;62.80;;;;;;5025414;28;20432;-73